Albion, CA

5:41 PM PDT on August 29, 2014 (GMT -0700)
Little River | Change Station
CLOSE
Current Station
Personal Weather Station
Location: Little River, CA
Elevation: 600 ft
Nearby Weather Stations

Elev 600 ft 39.26 °N, 123.72 °W | Updated 5 minutes ago

Clear
Clear
61.3 °F
Feels Like 61.3 °F
N
0.0
Wind Variable Wind from NNW
Gusts 0.0 mph

Today
High -- | Low -- °F
--% Chance of Precip.
Yesterday
High -- | Low -- °F
Precip. -- in
6:40 AM 7:49 PM
Waxing Crescent, 17% visible
Pressure 29.83 in
Visibility 10.0 miles
Clouds Clear
Dew Point 56 °F
Humidity 84%
Rainfall 0.00 in
Snow Depth Not available.
UV 3 out of 12
Pollen 9.10 out of 12
Air Quality Not available.
Flu Activity Not available.
METAR KUKI 292356Z AUTO VRB04G15KT 10SM CLR 33/03 A2986 RMK AO2 SLP102 T03280028 10350 20217 56007

More Conditions Fewer Conditions

Pressure 29.83 in
Visibility 10.0 miles
Clouds Clear
Dew Point 56 °F
Humidity 84%
Rainfall 0.00 in
Snow Depth Not available.
UV 3 out of 12
Pollen 9.10 out of 12
Air Quality Not available.
Flu Activity Not available.
METAR KUKI 292356Z AUTO VRB04G15KT 10SM CLR 33/03 A2986 RMK AO2 SLP102 T03280028 10350 20217 56007

More Conditions Fewer Conditions

10-Day Weather Forecast

Almanac

Astronomy

Aug. 29, 2014 Rise Set
Actual Time 6:40 AM PDT 7:49 PM PDT
Civil Twilight 6:13 AM PDT 8:17 PM PDT
Nautical Twilight 5:40 AM PDT 8:50 PM PDT
Astronomical Twilight 5:05 AM PDT 9:24 PM PDT
Moon 10:33 AM PDT (8/29) 9:52 PM PDT (8/29)
Length of Visible Light 14h 04m
Length of Day
13h 09m
Tomorrow will be 2m 26s shorter.
Waxing Crescent, 17% of the Moon is Illuminated
Today
Waxing Crescent
Sep 2
First Quarter
Sep 8
Full
Sep 15
Last Quarter
Sep 24
New

Today's Extremes

State Highs State Lows

Community

WunderPhotos

Upload Photos

1,748,390 photos uploaded!

Nearby

Snow Depth

Station Depth Elevation
CSS Lab 1 in 6900 ft
Adin Mountain 0 in 6200 ft
Leavitt Meadows 0 in 7200 ft
Summit Meadow 0 in 9122 ft

Earthquake Activity

City Distance Mag. Time & Date
The Geysers, California 54 miles 2.7 2:53 PM PDT
2014-08-29
Napa, California 99 miles 2.6 11:57 AM PDT
2014-08-27
The Geysers, California 54 miles 2.6 7:42 AM PDT
2014-08-27
Minimum magnitude displayed is 2.5.

Coastal Water Temperatures

Place Temperature
Arena Cove, CA 57.9 °F
North Spit, CA 57.9 °F
Point Reyes, CA 63.0 °F
San Francisco, CA 64.9 °F
Richmond, CA 66.9 °F

Nearby Weather Stations